Time;durP1;ratioP1;P1;durP2;ratioP2;P2;SDS_P1;SDS_P2;PMS_P1;PMS_P2;Temp;Humidity;BMP_temperature;BMP_pressure;BME280_temperature;BME280_humidity;BME280_pressure;Samples;Min_cycle;Max_cycle;Signal;HPM_P1;HPM_P2
2021/12/29 00:00:27;;;;;;;13.40;3.90;;;10.70;99.90;;;;;;4980912;28;20958;-55
2021/12/29 00:02:54;;;;;;;9.13;3.50;;;10.70;99.90;;;;;;4983363;28;20508;-56
2021/12/29 00:05:21;;;;;;;8.60;3.37;;;10.60;99.90;;;;;;4981555;28;20515;-53
2021/12/29 00:07:46;;;;;;;15.40;3.90;;;10.60;99.90;;;;;;4981205;28;20533;-56
2021/12/29 00:10:15;;;;;;;14.77;3.17;;;10.60;99.90;;;;;;4974815;28;20876;-57
2021/12/29 00:12:45;;;;;;;7.27;2.77;;;10.60;99.90;;;;;;4979129;28;20193;-57
2021/12/29 00:15:12;;;;;;;10.83;3.00;;;10.60;99.90;;;;;;4979328;28;20567;-55
2021/12/29 00:17:43;;;;;;;12.80;3.87;;;10.60;99.90;;;;;;4978780;28;20879;-55
2021/12/29 00:20:10;;;;;;;16.30;3.67;;;10.50;99.90;;;;;;4978627;28;20430;-55
2021/12/29 00:22:36;;;;;;;11.60;4.50;;;10.50;99.90;;;;;;4980492;28;20444;-55
2021/12/29 00:25:04;;;;;;;11.57;3.20;;;10.50;99.90;;;;;;4979836;28;20463;-53
2021/12/29 00:27:30;;;;;;;13.77;3.90;;;10.50;99.90;;;;;;4977517;28;20433;-53
2021/12/29 00:29:56;;;;;;;5.10;2.67;;;10.40;99.90;;;;;;4979753;28;20442;-53
2021/12/29 00:32:21;;;;;;;18.40;3.23;;;10.40;99.90;;;;;;4978776;28;20193;-54
2021/12/29 00:34:47;;;;;;;16.97;3.60;;;10.40;99.90;;;;;;4977481;28;20213;-54
2021/12/29 00:37:12;;;;;;;13.30;4.07;;;10.40;99.90;;;;;;4960907;28;20213;-54
2021/12/29 00:39:38;;;;;;;11.70;2.80;;;10.40;99.90;;;;;;4980231;28;20225;-55
2021/12/29 00:42:05;;;;;;;11.67;3.03;;;10.40;99.90;;;;;;4978973;28;20200;-56
2021/12/29 00:44:32;;;;;;;19.10;3.00;;;10.40;99.90;;;;;;4979943;28;20206;-56
2021/12/29 00:46:58;;;;;;;7.30;2.43;;;10.40;99.90;;;;;;4980079;28;20652;-57
2021/12/29 00:49:31;;;;;;;8.23;2.27;;;10.40;99.90;;;;;;4982899;28;20437;-54
2021/12/29 00:51:57;;;;;;;9.37;2.70;;;10.40;99.90;;;;;;4979038;28;20455;-55
2021/12/29 00:54:23;;;;;;;10.77;2.37;;;10.40;99.90;;;;;;4978049;28;20444;-52
2021/12/29 00:56:48;;;;;;;18.73;3.67;;;10.40;99.90;;;;;;4978577;28;20217;-56
2021/12/29 00:59:14;;;;;;;9.10;2.70;;;10.40;99.90;;;;;;4980229;28;20186;-51
2021/12/29 01:01:40;;;;;;;12.43;3.00;;;10.40;99.90;;;;;;4958927;28;20276;-55
2021/12/29 01:04:06;;;;;;;11.27;3.33;;;10.40;99.90;;;;;;4982012;28;20193;-53
2021/12/29 01:06:33;;;;;;;8.33;2.67;;;10.40;99.90;;;;;;4977825;28;20199;-53
2021/12/29 01:08:58;;;;;;;8.60;2.73;;;10.40;99.90;;;;;;4982265;28;20506;-57
2021/12/29 01:11:24;;;;;;;7.87;2.63;;;10.40;99.90;;;;;;4973250;28;20437;-56
2021/12/29 01:13:50;;;;;;;6.60;2.90;;;10.40;99.90;;;;;;4985185;28;20213;-53
2021/12/29 01:18:59;;;;;;;12.23;2.63;;;10.40;99.90;;;;;;4985250;28;20453;-53
2021/12/29 01:21:25;;;;;;;9.00;1.93;;;10.40;99.90;;;;;;4988664;28;20448;-58
2021/12/29 01:23:50;;;;;;;7.90;2.20;;;10.40;99.90;;;;;;4983573;28;20425;-57
2021/12/29 01:26:17;;;;;;;7.60;2.57;;;10.40;99.90;;;;;;4988245;28;20249;-53
2021/12/29 01:28:43;;;;;;;12.07;2.27;;;10.30;99.90;;;;;;4988284;28;20232;-54
2021/12/29 01:31:09;;;;;;;10.97;2.60;;;10.30;99.90;;;;;;4983879;28;20440;-54
2021/12/29 01:33:34;;;;;;;8.20;2.43;;;10.30;99.90;;;;;;4985323;28;20435;-55
2021/12/29 01:36:00;;;;;;;8.30;1.63;;;10.30;99.90;;;;;;4985010;28;20244;-57
2021/12/29 01:38:25;;;;;;;8.60;3.47;;;10.30;99.90;;;;;;4985065;28;20195;-55
2021/12/29 01:40:51;;;;;;;12.40;2.30;;;10.30;99.90;;;;;;4986884;28;20257;-55
2021/12/29 01:43:18;;;;;;;6.47;2.40;;;10.30;99.90;;;;;;4987366;28;20256;-55
2021/12/29 01:45:44;;;;;;;8.30;2.60;;;10.30;99.90;;;;;;4968765;28;20260;-54
2021/12/29 01:48:10;;;;;;;4.07;2.20;;;10.30;99.90;;;;;;4983654;28;20436;-56
2021/12/29 01:50:37;;;;;;;6.80;1.77;;;10.30;99.90;;;;;;4984696;28;20636;-55
2021/12/29 01:53:08;;;;;;;5.37;2.53;;;10.30;99.90;;;;;;4984258;28;20425;-56
2021/12/29 01:55:36;;;;;;;2.77;1.60;;;10.30;99.90;;;;;;4984344;28;20458;-54
2021/12/29 01:58:02;;;;;;;5.57;1.77;;;10.30;99.90;;;;;;4982872;28;20513;-53
2021/12/29 02:00:31;;;;;;;7.33;2.90;;;10.40;99.90;;;;;;4983130;28;20437;-53
2021/12/29 02:02:56;;;;;;;8.37;2.50;;;10.30;99.90;;;;;;4989000;28;20543;-53
2021/12/29 02:05:22;;;;;;;10.60;2.60;;;10.40;99.90;;;;;;4985427;28;20985;-55
2021/12/29 02:07:48;;;;;;;6.40;1.73;;;10.40;99.90;;;;;;4985548;28;20193;-52
2021/12/29 02:10:17;;;;;;;8.97;2.00;;;10.40;99.90;;;;;;4985955;28;20529;-56
2021/12/29 02:12:43;;;;;;;9.60;2.83;;;10.30;99.90;;;;;;4987380;28;20255;-56
2021/12/29 02:15:10;;;;;;;5.23;2.63;;;10.30;99.90;;;;;;4986870;28;20543;-55
2021/12/29 02:17:36;;;;;;;5.93;1.87;;;10.30;99.90;;;;;;4986088;28;20559;-56
2021/12/29 02:20:07;;;;;;;13.30;2.70;;;10.30;99.90;;;;;;4981347;28;20528;-56
2021/12/29 02:22:43;;;;;;;12.57;2.20;;;10.30;99.90;;;;;;4986227;28;20452;-55
2021/12/29 02:27:46;;;;;;;4.23;1.70;;;10.30;99.90;;;;;;4984355;28;20440;-55
2021/12/29 02:30:13;;;;;;;7.60;2.20;;;10.30;99.90;;;;;;4985976;28;20425;-53
2021/12/29 02:32:39;;;;;;;9.00;2.00;;;10.30;99.90;;;;;;4981756;28;20993;-53
2021/12/29 02:35:05;;;;;;;11.23;2.47;;;10.30;99.90;;;;;;4984256;28;20978;-52
2021/12/29 02:37:31;;;;;;;9.33;2.20;;;10.30;99.90;;;;;;4983223;28;20526;-55
2021/12/29 02:39:56;;;;;;;4.27;1.97;;;10.30;99.90;;;;;;4984218;28;20433;-55
2021/12/29 02:42:27;;;;;;;6.67;2.37;;;10.30;99.90;;;;;;4984813;28;20497;-56
2021/12/29 02:44:53;;;;;;;7.20;2.60;;;10.30;99.90;;;;;;4986013;28;20518;-53
2021/12/29 02:47:19;;;;;;;8.40;2.20;;;10.30;99.90;;;;;;4985183;28;21242;-56
2021/12/29 02:49:45;;;;;;;10.60;2.30;;;10.30;99.90;;;;;;4983879;28;20449;-54
2021/12/29 02:52:13;;;;;;;5.77;2.00;;;10.30;99.90;;;;;;4982111;28;20468;-55
2021/12/29 02:54:39;;;;;;;9.10;1.80;;;10.30;99.90;;;;;;4984425;28;20513;-55
2021/12/29 02:57:04;;;;;;;8.27;2.00;;;10.30;99.90;;;;;;4983030;28;20813;-56
2021/12/29 02:59:30;;;;;;;4.47;2.20;;;10.30;99.90;;;;;;4965071;28;20444;-56
2021/12/29 03:01:56;;;;;;;7.33;2.37;;;10.30;99.90;;;;;;4987747;28;20452;-56
2021/12/29 03:04:21;;;;;;;7.83;2.00;;;10.30;99.90;;;;;;4982255;28;20250;-54
2021/12/29 03:06:47;;;;;;;5.90;1.83;;;10.30;99.90;;;;;;4983470;28;20248;-54
2021/12/29 03:09:16;;;;;;;9.60;1.83;;;10.30;99.90;;;;;;4984210;28;20278;-51
2021/12/29 03:11:41;;;;;;;4.73;1.90;;;10.30;99.90;;;;;;4982466;28;20496;-55
2021/12/29 03:14:08;;;;;;;5.80;1.73;;;10.30;99.90;;;;;;4986426;28;20923;-55
2021/12/29 03:16:35;;;;;;;3.27;1.53;;;10.30;99.90;;;;;;4983594;28;20210;-56
2021/12/29 03:19:03;;;;;;;5.97;2.13;;;10.30;99.90;;;;;;4982356;28;20441;-56
2021/12/29 03:21:29;;;;;;;6.30;1.80;;;10.30;99.90;;;;;;4984641;28;20440;-56
2021/12/29 03:23:55;;;;;;;8.53;2.40;;;10.30;99.90;;;;;;4984518;28;20524;-54
2021/12/29 03:26:21;;;;;;;8.23;1.80;;;10.30;99.90;;;;;;4985483;28;20552;-56
2021/12/29 03:28:46;;;;;;;4.80;1.70;;;10.30;99.90;;;;;;4983205;28;20799;-54
2021/12/29 03:31:14;;;;;;;4.23;1.30;;;10.30;99.90;;;;;;4976655;28;20193;-55
2021/12/29 03:33:41;;;;;;;3.40;1.77;;;10.20;99.90;;;;;;4986250;28;20619;-52
2021/12/29 03:36:07;;;;;;;3.67;1.50;;;10.10;99.90;;;;;;4984081;28;20468;-54
2021/12/29 03:38:35;;;;;;;3.67;1.80;;;10.00;99.90;;;;;;4984360;28;20437;-53
2021/12/29 03:41:02;;;;;;;4.43;1.57;;;10.00;99.90;;;;;;4981129;28;20433;-55
2021/12/29 03:43:29;;;;;;;9.33;2.00;;;10.10;99.90;;;;;;4983392;28;20468;-56
2021/12/29 03:45:55;;;;;;;5.80;1.40;;;10.00;99.90;;;;;;4980199;28;20456;-54
2021/12/29 03:48:23;;;;;;;5.60;1.77;;;10.10;99.90;;;;;;4984083;28;20437;-53
2021/12/29 03:50:49;;;;;;;6.27;1.50;;;10.10;99.90;;;;;;4966027;28;20718;-54
2021/12/29 03:53:16;;;;;;;3.30;1.27;;;10.10;99.90;;;;;;4985767;28;20507;-56
2021/12/29 03:55:43;;;;;;;4.40;1.73;;;10.00;99.90;;;;;;4981268;28;20460;-56
2021/12/29 03:58:08;;;;;;;8.57;2.20;;;10.10;99.90;;;;;;4985221;28;20487;-54
2021/12/29 04:00:34;;;;;;;4.83;2.00;;;10.10;99.90;;;;;;4985120;28;20429;-55
2021/12/29 04:03:00;;;;;;;9.30;1.80;;;10.00;99.90;;;;;;4983737;28;20316;-55
2021/12/29 04:05:26;;;;;;;6.73;1.70;;;10.10;99.90;;;;;;4984926;28;20456;-55
2021/12/29 04:07:56;;;;;;;2.10;1.10;;;10.10;99.90;;;;;;4984380;28;20279;-55
2021/12/29 04:10:22;;;;;;;2.53;1.60;;;10.00;99.90;;;;;;4980643;28;20677;-56
2021/12/29 04:12:49;;;;;;;2.93;1.40;;;10.00;99.90;;;;;;4982286;28;20460;-53
2021/12/29 04:15:16;;;;;;;5.07;1.70;;;10.00;99.90;;;;;;4981159;28;20457;-57
2021/12/29 04:17:42;;;;;;;3.63;1.60;;;10.00;99.90;;;;;;4986249;28;20460;-55
2021/12/29 04:23:08;;;;;;;3.90;1.90;;;10.00;99.90;;;;;;4984796;28;20436;-56
2021/12/29 04:25:37;;;;;;;5.67;1.50;;;10.00;99.90;;;;;;4980370;28;20476;-56
2021/12/29 04:28:08;;;;;;;3.73;1.30;;;10.00;99.90;;;;;;4978389;28;20452;-55
2021/12/29 04:30:34;;;;;;;4.40;1.60;;;10.10;99.90;;;;;;4979940;28;20425;-56
2021/12/29 04:32:59;;;;;;;5.80;1.90;;;10.00;99.90;;;;;;4982801;28;20429;-53
2021/12/29 04:35:25;;;;;;;1.90;1.30;;;10.10;99.90;;;;;;4980611;28;20880;-55
2021/12/29 04:37:51;;;;;;;3.47;1.63;;;10.00;99.90;;;;;;4984912;28;20209;-55
2021/12/29 04:40:18;;;;;;;5.53;1.50;;;10.00;99.90;;;;;;4982142;28;20433;-55
2021/12/29 04:42:44;;;;;;;2.57;1.50;;;10.00;99.90;;;;;;4981945;28;20813;-55
2021/12/29 04:45:10;;;;;;;11.47;2.37;;;10.00;99.90;;;;;;4988595;28;20464;-56
2021/12/29 04:47:40;;;;;;;4.07;1.60;;;9.90;99.90;;;;;;4986398;28;20691;-53
2021/12/29 04:50:17;;;;;;;8.90;1.43;;;9.80;99.90;;;;;;4987531;28;20435;-55
2021/12/29 04:52:43;;;;;;;4.97;2.40;;;9.90;99.90;;;;;;4969463;28;20482;-55
2021/12/29 04:55:09;;;;;;;4.07;1.63;;;9.90;99.90;;;;;;4984573;28;20989;-54
2021/12/29 04:57:35;;;;;;;6.13;1.73;;;9.90;99.90;;;;;;4985718;28;20206;-55
2021/12/29 05:00:00;;;;;;;3.87;1.50;;;9.80;99.90;;;;;;4983539;28;20447;-53
2021/12/29 05:02:26;;;;;;;5.60;1.87;;;9.70;99.90;;;;;;4987151;28;20181;-55
2021/12/29 05:05:01;;;;;;;5.10;1.70;;;9.70;99.90;;;;;;4984694;28;20201;-54
2021/12/29 05:10:12;;;;;;;5.80;1.83;;;9.60;99.90;;;;;;4987194;28;21048;-51
2021/12/29 05:12:37;;;;;;;6.10;2.13;;;9.60;99.90;;;;;;4982879;28;20520;-54
2021/12/29 05:15:04;;;;;;;14.40;2.57;;;9.60;99.90;;;;;;4987951;28;20463;-55
2021/12/29 05:17:30;;;;;;;8.80;2.13;;;9.60;99.90;;;;;;4987971;28;20252;-56
2021/12/29 05:19:55;;;;;;;6.43;2.00;;;9.60;99.90;;;;;;4986090;28;20962;-54
2021/12/29 05:22:21;;;;;;;10.40;2.43;;;9.60;99.90;;;;;;4986102;28;20186;-55
2021/12/29 05:24:46;;;;;;;7.57;2.10;;;9.50;99.90;;;;;;4983116;28;20246;-51
2021/12/29 05:27:12;;;;;;;10.00;2.57;;;9.60;99.90;;;;;;4985397;28;20194;-56
2021/12/29 05:29:38;;;;;;;6.77;2.30;;;9.60;99.90;;;;;;4986976;28;21802;-55
2021/12/29 05:32:04;;;;;;;7.40;2.60;;;9.50;99.90;;;;;;4985312;28;20185;-55
2021/12/29 05:34:29;;;;;;;6.67;2.40;;;9.50;99.90;;;;;;4989946;28;20205;-53
2021/12/29 05:36:55;;;;;;;7.97;2.37;;;9.50;99.90;;;;;;4986448;28;20533;-54
2021/12/29 05:39:21;;;;;;;6.93;2.53;;;9.50;99.90;;;;;;4984101;28;20549;-54
2021/12/29 05:41:46;;;;;;;7.40;2.73;;;9.50;99.90;;;;;;4986428;28;20269;-53
2021/12/29 05:44:12;;;;;;;3.57;1.90;;;9.60;99.90;;;;;;4983573;28;20241;-56
2021/12/29 05:46:38;;;;;;;8.73;2.77;;;9.60;99.90;;;;;;4985191;28;20597;-54
2021/12/29 05:49:03;;;;;;;6.37;2.37;;;9.60;99.90;;;;;;4983233;28;20198;-52
2021/12/29 05:51:29;;;;;;;4.17;2.00;;;9.60;99.90;;;;;;4988712;28;20202;-57
2021/12/29 05:53:55;;;;;;;6.10;2.07;;;9.60;99.90;;;;;;4986998;28;20555;-55
2021/12/29 05:56:21;;;;;;;10.50;2.43;;;9.70;99.90;;;;;;4981579;28;20218;-56
2021/12/29 05:58:46;;;;;;;13.70;2.70;;;9.70;99.90;;;;;;4987054;28;20433;-57
2021/12/29 06:01:12;;;;;;;5.00;2.10;;;9.70;99.90;;;;;;4982598;28;20186;-55
2021/12/29 06:03:39;;;;;;;8.53;2.83;;;9.70;99.90;;;;;;4986621;28;21159;-56
2021/12/29 06:06:05;;;;;;;12.13;2.13;;;9.80;99.90;;;;;;4983220;28;20472;-55
2021/12/29 06:08:30;;;;;;;13.90;2.00;;;9.80;99.90;;;;;;4983761;28;20433;-56
2021/12/29 06:10:56;;;;;;;8.03;2.40;;;9.90;99.90;;;;;;4983576;28;20185;-56
2021/12/29 06:13:22;;;;;;;7.90;1.97;;;9.90;99.90;;;;;;4982757;28;20189;-56
2021/12/29 06:15:47;;;;;;;8.50;2.17;;;9.90;99.90;;;;;;4986570;28;20602;-56
2021/12/29 06:18:13;;;;;;;7.87;1.80;;;9.90;99.90;;;;;;4983762;28;20262;-53
2021/12/29 06:20:39;;;;;;;7.67;2.43;;;9.90;99.90;;;;;;4982463;28;20525;-55
2021/12/29 06:23:06;;;;;;;7.47;2.30;;;9.90;99.90;;;;;;4981701;28;20197;-54
2021/12/29 06:25:33;;;;;;;4.53;1.67;;;9.90;99.90;;;;;;4983824;28;20452;-56
2021/12/29 06:27:59;;;;;;;6.73;1.70;;;9.90;99.90;;;;;;4985471;28;20459;-55
2021/12/29 06:30:24;;;;;;;4.43;2.20;;;9.90;99.90;;;;;;4985580;28;20808;-55
2021/12/29 06:32:51;;;;;;;5.63;1.70;;;9.90;99.90;;;;;;4984900;28;20200;-55
2021/12/29 06:35:16;;;;;;;9.50;2.33;;;9.90;99.90;;;;;;4984518;28;20240;-54
2021/12/29 06:37:43;;;;;;;8.00;2.33;;;9.90;99.90;;;;;;4984530;28;21097;-54
2021/12/29 06:40:11;;;;;;;8.83;2.10;;;9.90;99.90;;;;;;4983301;28;20443;-57
2021/12/29 06:42:36;;;;;;;5.50;2.00;;;9.90;99.90;;;;;;4984905;28;20451;-56
2021/12/29 06:45:03;;;;;;;11.80;2.50;;;10.00;99.90;;;;;;4981898;28;20437;-57
2021/12/29 06:47:29;;;;;;;6.00;2.10;;;9.90;99.90;;;;;;4981861;28;20252;-54
2021/12/29 06:49:54;;;;;;;10.07;2.33;;;9.90;99.90;;;;;;4981662;28;20442;-56
2021/12/29 06:52:20;;;;;;;9.93;2.37;;;9.90;99.90;;;;;;4983057;28;20196;-53
2021/12/29 06:54:46;;;;;;;6.30;1.70;;;9.90;99.90;;;;;;4984203;28;20213;-52
2021/12/29 06:57:12;;;;;;;3.70;1.70;;;9.90;99.90;;;;;;4982279;28;20217;-55
2021/12/29 06:59:37;;;;;;;6.60;2.30;;;9.90;99.90;;;;;;4983212;28;20796;-57
2021/12/29 07:02:03;;;;;;;9.57;2.57;;;10.00;99.90;;;;;;4985816;28;20441;-55
2021/12/29 07:04:29;;;;;;;6.43;1.90;;;10.00;99.90;;;;;;4981730;28;20210;-56
2021/12/29 07:06:55;;;;;;;3.33;1.57;;;10.00;99.90;;;;;;4984986;28;20568;-54
2021/12/29 07:09:21;;;;;;;4.53;2.40;;;10.00;99.90;;;;;;4985136;28;20218;-55
2021/12/29 07:11:47;;;;;;;5.30;2.80;;;10.00;99.90;;;;;;4981307;28;20190;-56
2021/12/29 07:14:13;;;;;;;19.37;6.93;;;10.00;99.90;;;;;;4983464;28;20640;-56
2021/12/29 07:16:39;;;;;;;13.57;6.37;;;9.90;99.90;;;;;;4981008;28;20209;-55
2021/12/29 07:19:05;;;;;;;10.43;4.37;;;10.00;99.90;;;;;;4982495;28;20531;-55
2021/12/29 07:21:32;;;;;;;5.90;2.90;;;10.10;99.90;;;;;;4982899;28;20815;-56
2021/12/29 07:23:58;;;;;;;3.93;1.70;;;10.10;99.90;;;;;;4980647;28;20425;-55
2021/12/29 07:26:24;;;;;;;2.70;1.70;;;9.90;99.90;;;;;;4981564;28;20463;-54
2021/12/29 07:28:51;;;;;;;2.80;1.70;;;9.90;99.90;;;;;;4983774;28;20495;-57
2021/12/29 07:31:18;;;;;;;2.87;1.67;;;9.90;99.90;;;;;;4981853;28;20437;-57
2021/12/29 07:33:44;;;;;;;5.67;2.20;;;9.90;99.90;;;;;;4982500;28;20459;-55
2021/12/29 07:36:11;;;;;;;8.43;2.10;;;9.90;99.90;;;;;;4980094;28;20551;-55
2021/12/29 07:38:40;;;;;;;4.87;2.40;;;10.00;99.90;;;;;;4981277;28;20182;-55
2021/12/29 07:41:08;;;;;;;4.90;2.03;;;9.90;99.90;;;;;;4982636;28;20519;-54
2021/12/29 07:43:35;;;;;;;7.33;1.93;;;9.90;99.90;;;;;;4981855;28;20441;-55
2021/12/29 07:46:02;;;;;;;4.93;2.17;;;9.80;99.90;;;;;;4981756;28;20615;-54
2021/12/29 07:48:30;;;;;;;1.87;1.50;;;9.90;99.90;;;;;;4982196;28;20429;-57
2021/12/29 07:50:55;;;;;;;5.47;1.83;;;9.90;99.90;;;;;;4981482;28;20456;-56
2021/12/29 07:53:22;;;;;;;3.73;1.80;;;9.90;99.90;;;;;;4981560;28;20445;-56
2021/12/29 07:55:47;;;;;;;3.30;1.77;;;10.00;99.90;;;;;;4980328;28;20214;-51
2021/12/29 07:58:14;;;;;;;6.33;2.13;;;10.00;99.90;;;;;;4982454;28;20431;-51
2021/12/29 08:00:39;;;;;;;2.27;1.43;;;10.00;99.90;;;;;;4980790;28;20665;-55
2021/12/29 08:03:05;;;;;;;6.27;2.00;;;9.90;99.90;;;;;;4981088;28;20929;-52
2021/12/29 08:05:31;;;;;;;4.53;1.80;;;9.90;99.90;;;;;;4983868;28;20200;-56
2021/12/29 08:07:57;;;;;;;4.50;2.27;;;9.90;99.90;;;;;;4980036;28;20433;-56
2021/12/29 08:10:22;;;;;;;2.90;1.67;;;9.80;99.90;;;;;;4984281;28;20201;-53
2021/12/29 08:12:48;;;;;;;2.30;1.40;;;9.90;99.90;;;;;;4979404;28;20196;-54
2021/12/29 08:15:14;;;;;;;5.43;2.13;;;9.90;99.90;;;;;;4981829;28;20313;-57
2021/12/29 08:17:41;;;;;;;2.40;1.40;;;9.90;99.90;;;;;;4981248;28;20202;-56
2021/12/29 08:20:08;;;;;;;4.23;2.00;;;9.80;99.90;;;;;;4980748;28;20190;-53
2021/12/29 08:22:33;;;;;;;8.67;1.73;;;9.90;99.90;;;;;;4981048;28;20828;-55
2021/12/29 08:24:59;;;;;;;4.03;1.70;;;9.90;99.90;;;;;;4981853;28;20456;-53
2021/12/29 08:27:25;;;;;;;3.00;1.60;;;9.80;99.90;;;;;;4979656;28;20205;-53
2021/12/29 08:29:51;;;;;;;6.40;1.67;;;9.70;99.90;;;;;;4984684;28;20231;-55
2021/12/29 08:32:18;;;;;;;5.83;1.93;;;9.80;99.90;;;;;;4980057;28;20301;-55
2021/12/29 08:34:44;;;;;;;5.60;2.50;;;9.80;99.90;;;;;;4980713;28;20559;-53
2021/12/29 08:37:09;;;;;;;15.97;3.77;;;9.70;99.90;;;;;;4979686;28;20606;-54
2021/12/29 08:39:35;;;;;;;8.83;3.00;;;9.80;99.90;;;;;;4980927;28;20197;-56
2021/12/29 08:42:01;;;;;;;11.37;3.10;;;9.80;99.90;;;;;;4986138;28;20193;-54
2021/12/29 08:44:26;;;;;;;4.27;1.90;;;9.80;99.90;;;;;;4976900;28;20297;-55
2021/12/29 08:46:52;;;;;;;6.53;2.20;;;9.90;99.90;;;;;;4982831;28;20348;-55
2021/12/29 08:49:18;;;;;;;6.23;2.33;;;9.90;99.90;;;;;;4984261;28;20605;-55
2021/12/29 08:51:43;;;;;;;3.50;2.33;;;10.00;99.90;;;;;;4982616;28;20193;-56
2021/12/29 08:54:09;;;;;;;6.30;2.33;;;10.00;99.90;;;;;;4985132;28;20685;-56
2021/12/29 08:56:35;;;;;;;4.30;2.10;;;10.10;99.90;;;;;;4981848;28;20217;-58
2021/12/29 08:59:01;;;;;;;4.23;1.70;;;10.10;99.90;;;;;;4983182;28;20701;-53
2021/12/29 09:01:27;;;;;;;3.40;2.10;;;10.10;99.90;;;;;;4983223;28;20193;-54
2021/12/29 09:03:54;;;;;;;2.40;1.40;;;10.10;99.90;;;;;;4983545;28;20992;-56
2021/12/29 09:06:21;;;;;;;5.27;2.00;;;10.10;99.90;;;;;;4982454;28;20464;-56
2021/12/29 09:08:47;;;;;;;6.57;2.50;;;10.10;99.90;;;;;;4980931;28;20440;-53
2021/12/29 09:11:13;;;;;;;4.90;2.57;;;10.10;99.90;;;;;;4982096;28;20989;-56
2021/12/29 09:13:39;;;;;;;3.07;1.80;;;10.20;99.90;;;;;;4982050;28;20190;-56
2021/12/29 09:16:06;;;;;;;4.67;1.80;;;10.20;99.90;;;;;;4982237;28;20899;-54
2021/12/29 09:18:33;;;;;;;4.83;2.10;;;10.20;99.90;;;;;;4983808;28;20962;-55
2021/12/29 09:21:06;;;;;;;3.87;1.93;;;10.30;99.90;;;;;;4983364;28;20434;-55
2021/12/29 09:23:32;;;;;;;4.10;2.10;;;10.30;99.90;;;;;;4982795;28;20783;-54
2021/12/29 09:25:58;;;;;;;4.60;2.27;;;10.40;99.90;;;;;;4982183;28;20836;-56
2021/12/29 09:28:24;;;;;;;5.17;2.23;;;10.40;99.90;;;;;;4980411;28;20444;-54
2021/12/29 09:30:51;;;;;;;5.13;1.93;;;10.40;99.90;;;;;;4989353;28;20194;-55
2021/12/29 09:33:19;;;;;;;11.67;1.97;;;10.50;99.90;;;;;;4985593;28;20938;-56
2021/12/29 09:35:47;;;;;;;4.67;1.90;;;10.40;99.90;;;;;;4987288;28;20522;-56
2021/12/29 09:38:15;;;;;;;8.50;1.90;;;10.40;99.90;;;;;;4987723;28;20555;-57
2021/12/29 09:40:42;;;;;;;5.80;2.00;;;10.40;99.90;;;;;;4983901;28;20467;-56
2021/12/29 09:43:08;;;;;;;4.43;2.03;;;10.40;99.90;;;;;;4988645;28;20437;-54
2021/12/29 09:45:36;;;;;;;9.00;1.87;;;10.40;99.90;;;;;;4984186;28;20884;-56
2021/12/29 09:48:02;;;;;;;5.20;2.07;;;10.40;99.90;;;;;;4983541;28;20205;-56
2021/12/29 09:50:28;;;;;;;5.30;2.33;;;10.40;99.90;;;;;;4987755;28;20529;-54
2021/12/29 09:52:56;;;;;;;4.00;1.97;;;10.50;99.90;;;;;;4984570;28;20495;-55
2021/12/29 09:55:23;;;;;;;6.40;2.47;;;10.50;99.90;;;;;;4982965;28;20496;-56
2021/12/29 09:57:53;;;;;;;7.70;1.90;;;10.50;99.90;;;;;;4983736;28;21005;-57
2021/12/29 10:00:18;;;;;;;6.10;2.50;;;10.50;99.90;;;;;;4971531;28;20456;-57
2021/12/29 10:02:44;;;;;;;9.33;2.30;;;10.50;99.90;;;;;;4983852;28;20495;-55
2021/12/29 10:05:10;;;;;;;7.07;2.00;;;10.60;99.90;;;;;;4986204;28;20212;-57
2021/12/29 10:07:35;;;;;;;7.47;2.00;;;10.60;99.90;;;;;;4985408;28;20667;-55
2021/12/29 10:10:14;;;;;;;8.00;2.20;;;10.60;99.90;;;;;;4983095;28;20201;-54
2021/12/29 10:12:44;;;;;;;5.67;2.43;;;10.70;99.90;;;;;;4983063;28;20197;-56
2021/12/29 10:15:09;;;;;;;6.87;2.30;;;10.60;99.90;;;;;;4986859;28;20844;-55
2021/12/29 10:17:35;;;;;;;5.53;2.53;;;10.70;99.90;;;;;;4986279;28;20472;-55
2021/12/29 10:20:16;;;;;;;5.00;1.80;;;10.70;99.90;;;;;;4979919;28;20194;-55
2021/12/29 10:22:42;;;;;;;6.03;1.77;;;10.70;99.90;;;;;;4981866;28;20570;-53
2021/12/29 10:25:13;;;;;;;7.57;2.10;;;10.70;99.90;;;;;;4982740;28;20464;-56
2021/12/29 10:27:41;;;;;;;5.13;1.83;;;10.60;99.90;;;;;;4985890;28;20189;-56
2021/12/29 10:30:36;;;;;;;5.90;1.90;;;10.60;99.90;;;;;;4985338;28;20457;-53
2021/12/29 10:33:13;;;;;;;9.27;2.60;;;10.60;99.90;;;;;;4967900;28;20532;-55
2021/12/29 10:35:38;;;;;;;6.33;2.13;;;10.70;99.90;;;;;;4982709;28;20472;-55
2021/12/29 10:38:20;;;;;;;4.27;2.10;;;10.70;99.90;;;;;;4983737;28;20487;-56
2021/12/29 10:40:46;;;;;;;4.67;2.37;;;10.70;99.90;;;;;;4981714;28;20181;-58
2021/12/29 10:43:12;;;;;;;7.13;2.50;;;10.70;99.90;;;;;;4979459;28;21032;-54
2021/12/29 10:45:40;;;;;;;10.17;2.97;;;10.70;99.90;;;;;;4984596;28;20220;-55
2021/12/29 10:48:18;;;;;;;4.57;2.70;;;10.70;99.90;;;;;;4981916;28;20992;-57
2021/12/29 10:51:07;;;;;;;6.30;2.20;;;10.70;99.90;;;;;;4980039;28;20729;-54
2021/12/29 10:53:37;;;;;;;13.37;4.17;;;10.70;99.90;;;;;;4979136;28;20467;-56
2021/12/29 10:56:04;;;;;;;8.23;2.83;;;10.60;99.90;;;;;;4983329;28;20475;-56
2021/12/29 10:58:33;;;;;;;9.17;2.70;;;10.60;99.90;;;;;;4983424;28;20441;-57
2021/12/29 11:01:09;;;;;;;10.87;4.60;;;10.70;99.90;;;;;;4976574;28;20438;-56
2021/12/29 11:03:45;;;;;;;4.80;2.17;;;10.70;99.90;;;;;;4977510;28;20444;-53
2021/12/29 11:06:13;;;;;;;9.47;2.73;;;10.80;99.90;;;;;;4982024;28;20812;-55
2021/12/29 11:08:52;;;;;;;6.70;2.20;;;10.80;99.90;;;;;;4986605;28;20872;-55
2021/12/29 11:11:24;;;;;;;5.20;2.60;;;10.70;99.90;;;;;;4986070;28;20438;-56
2021/12/29 11:13:49;;;;;;;8.53;2.23;;;10.70;99.90;;;;;;4983332;28;20445;-55
2021/12/29 11:16:18;;;;;;;4.70;2.43;;;10.70;99.90;;;;;;4981260;28;20472;-52
2021/12/29 11:18:48;;;;;;;9.13;3.10;;;10.70;99.90;;;;;;4984257;28;20187;-56
2021/12/29 11:21:37;;;;;;;6.43;2.90;;;10.80;99.90;;;;;;4983610;28;20449;-55
2021/12/29 11:24:25;;;;;;;6.83;3.00;;;10.70;99.90;;;;;;4984886;28;20444;-56
2021/12/29 11:26:51;;;;;;;11.03;2.63;;;10.80;99.90;;;;;;4982941;28;20475;-54
2021/12/29 11:29:19;;;;;;;7.73;2.93;;;10.90;99.90;;;;;;4983081;28;20536;-55
2021/12/29 11:31:49;;;;;;;5.50;2.30;;;10.90;99.90;;;;;;4984039;28;20822;-55
2021/12/29 11:34:19;;;;;;;6.17;2.50;;;10.90;99.90;;;;;;4979716;28;21085;-57
2021/12/29 11:36:58;;;;;;;5.70;2.20;;;11.00;99.90;;;;;;4985776;28;20523;-54
2021/12/29 11:39:23;;;;;;;8.17;3.30;;;11.00;99.90;;;;;;4982354;28;20813;-55
2021/12/29 11:41:49;;;;;;;5.53;2.80;;;11.10;99.90;;;;;;4975793;28;20447;-57
2021/12/29 11:44:15;;;;;;;10.23;3.30;;;11.10;99.90;;;;;;4981430;28;20193;-56
2021/12/29 11:46:41;;;;;;;8.23;2.53;;;11.00;99.90;;;;;;4983231;28;20245;-55
2021/12/29 11:49:06;;;;;;;10.23;3.33;;;11.00;99.90;;;;;;4971887;28;20189;-57
2021/12/29 11:51:43;;;;;;;8.13;2.83;;;11.10;99.90;;;;;;4968702;28;20194;-58
2021/12/29 11:54:18;;;;;;;12.03;3.20;;;11.20;99.90;;;;;;4962137;28;20198;-56
2021/12/29 11:56:44;;;;;;;13.73;3.30;;;11.10;99.90;;;;;;4975251;28;20559;-55
2021/12/29 11:59:09;;;;;;;9.83;2.73;;;11.20;99.90;;;;;;4972073;28;20432;-55
2021/12/29 12:01:37;;;;;;;7.83;2.83;;;11.20;99.90;;;;;;4976784;28;20182;-55
2021/12/29 12:04:10;;;;;;;7.27;2.40;;;11.30;99.90;;;;;;4965503;28;20694;-57
2021/12/29 12:06:41;;;;;;;7.00;2.83;;;11.20;99.90;;;;;;4982826;28;20449;-53
2021/12/29 12:09:17;;;;;;;10.20;2.77;;;11.30;99.90;;;;;;4980754;28;20555;-57
2021/12/29 12:11:59;;;;;;;8.80;2.87;;;11.30;99.90;;;;;;4975912;28;20474;-58
2021/12/29 12:14:31;;;;;;;10.30;3.13;;;11.20;99.90;;;;;;4964853;28;20446;-54
2021/12/29 12:17:01;;;;;;;12.20;4.23;;;11.20;99.90;;;;;;4967218;28;20773;-53
2021/12/29 12:19:29;;;;;;;6.80;2.27;;;11.20;99.90;;;;;;4958099;28;20449;-57
2021/12/29 12:22:02;;;;;;;5.47;2.40;;;11.10;99.90;;;;;;4982679;28;20571;-58
2021/12/29 12:24:28;;;;;;;11.17;3.23;;;11.10;99.90;;;;;;4980170;28;21416;-58
2021/12/29 12:26:58;;;;;;;7.27;2.80;;;11.10;99.90;;;;;;4978776;28;20456;-56
2021/12/29 12:29:33;;;;;;;12.70;3.80;;;11.10;99.90;;;;;;4980319;28;20528;-57
2021/12/29 12:32:19;;;;;;;6.20;2.60;;;11.20;99.90;;;;;;4982358;28;20936;-57
2021/12/29 12:34:58;;;;;;;11.20;3.17;;;11.20;99.90;;;;;;4980933;28;20476;-57
2021/12/29 12:37:43;;;;;;;15.90;3.97;;;11.10;99.90;;;;;;4984798;28;20598;-58
2021/12/29 12:40:25;;;;;;;12.93;3.83;;;11.10;99.90;;;;;;4972423;28;20482;-56
2021/12/29 12:43:10;;;;;;;11.50;3.33;;;11.20;99.90;;;;;;4964721;28;22368;-57
2021/12/29 12:45:38;;;;;;;5.03;2.60;;;11.00;99.90;;;;;;4972357;28;20843;-57
2021/12/29 12:48:05;;;;;;;6.83;3.03;;;10.90;99.90;;;;;;4973531;28;20834;-56
2021/12/29 12:50:31;;;;;;;7.90;2.77;;;10.90;99.90;;;;;;4975026;28;20531;-57
2021/12/29 12:52:57;;;;;;;5.60;2.13;;;10.90;99.90;;;;;;4976258;28;20448;-57
2021/12/29 12:55:24;;;;;;;8.27;3.03;;;10.80;99.90;;;;;;4974967;28;21098;-56
2021/12/29 12:57:50;;;;;;;10.20;3.10;;;10.90;99.90;;;;;;4970882;28;20210;-54
2021/12/29 13:00:18;;;;;;;8.20;2.60;;;10.80;99.90;;;;;;4975805;28;20440;-57